Time;durP1;ratioP1;P1;durP2;ratioP2;P2;SDS_P1;SDS_P2;PMS_P1;PMS_P2;Temp;Humidity;BMP_temperature;BMP_pressure;BME280_temperature;BME280_humidity;BME280_pressure;Samples;Min_cycle;Max_cycle;Signal;HPM_P1;HPM_P2
2022/10/18 00:01:51;;;;;;;27.67;12.02;;;16.50;99.90;;;;;;5073849;28;20036;-69
2022/10/18 00:04:17;;;;;;;18.73;12.00;;;16.70;99.90;;;;;;5073996;28;20016;-72
2022/10/18 00:06:42;;;;;;;27.50;12.90;;;16.40;99.90;;;;;;5073886;28;20031;-73
2022/10/18 00:09:08;;;;;;;21.25;12.13;;;16.60;99.90;;;;;;5073828;28;20461;-71
2022/10/18 00:11:34;;;;;;;24.55;13.07;;;16.60;99.90;;;;;;5073837;28;20032;-73
2022/10/18 00:14:00;;;;;;;22.13;14.10;;;16.70;99.90;;;;;;5059644;28;20369;-73
2022/10/18 00:16:26;;;;;;;23.10;13.55;;;16.70;99.90;;;;;;5073099;28;20036;-71
2022/10/18 00:18:52;;;;;;;21.92;12.75;;;16.80;99.90;;;;;;5074521;28;20024;-73
2022/10/18 00:21:20;;;;;;;20.63;13.60;;;16.80;99.90;;;;;;5059117;28;20029;-73
2022/10/18 00:23:47;;;;;;;19.02;12.73;;;16.60;99.90;;;;;;5085973;28;20366;-71
2022/10/18 00:26:15;;;;;;;27.42;14.52;;;16.60;99.90;;;;;;5064409;28;20036;-72
2022/10/18 00:28:43;;;;;;;18.83;13.70;;;16.70;99.90;;;;;;5091048;28;20020;-74
2022/10/18 00:31:11;;;;;;;24.92;13.80;;;16.70;99.90;;;;;;5093606;28;20032;-70
2022/10/18 00:33:37;;;;;;;26.05;14.98;;;16.40;99.90;;;;;;5091662;28;20389;-72
2022/10/18 00:36:03;;;;;;;28.55;14.98;;;16.30;99.90;;;;;;5081333;28;20031;-72
2022/10/18 00:38:29;;;;;;;22.35;14.68;;;16.20;99.90;;;;;;5093756;28;20028;-73
2022/10/18 00:40:55;;;;;;;23.45;14.65;;;16.30;99.90;;;;;;5093032;28;20051;-69
2022/10/18 00:43:20;;;;;;;24.23;15.35;;;16.50;99.90;;;;;;5093549;28;20040;-69
2022/10/18 00:45:46;;;;;;;21.02;14.32;;;16.70;99.90;;;;;;5092835;28;20020;-73
2022/10/18 00:48:15;;;;;;;21.88;13.95;;;16.70;99.90;;;;;;5083455;28;20505;-69
2022/10/18 00:50:41;;;;;;;26.48;13.45;;;16.80;99.90;;;;;;5069448;28;20024;-70
2022/10/18 00:53:15;;;;;;;25.67;14.57;;;16.90;99.90;;;;;;5063374;28;20089;-70
2022/10/18 00:55:41;;;;;;;18.85;13.48;;;17.00;99.90;;;;;;5092820;28;20039;-70
2022/10/18 00:58:08;;;;;;;26.45;13.55;;;16.90;99.90;;;;;;5093267;28;20028;-73
2022/10/18 01:00:38;;;;;;;19.20;13.80;;;16.70;99.90;;;;;;5092984;28;20032;-70
2022/10/18 01:03:04;;;;;;;18.70;13.48;;;16.80;99.90;;;;;;5093151;28;20032;-69
2022/10/18 01:05:30;;;;;;;22.85;13.68;;;16.90;99.90;;;;;;5093251;28;20042;-69
2022/10/18 01:08:21;;;;;;;25.23;13.20;;;17.00;99.90;;;;;;5093083;28;20032;-74
2022/10/18 01:11:21;;;;;;;24.88;12.90;;;17.00;99.90;;;;;;5092608;28;20028;-73
2022/10/18 01:14:06;;;;;;;19.27;13.65;;;17.00;99.90;;;;;;5055048;28;20123;-72
2022/10/18 01:17:07;;;;;;;24.65;13.80;;;17.10;99.90;;;;;;5092908;28;20495;-70
2022/10/18 01:19:42;;;;;;;20.20;13.57;;;17.00;99.90;;;;;;5092902;28;20496;-73
2022/10/18 01:22:11;;;;;;;17.88;13.45;;;16.90;99.90;;;;;;5092779;28;20044;-69
2022/10/18 01:24:56;;;;;;;23.90;14.55;;;17.10;99.90;;;;;;5092245;28;20419;-73
2022/10/18 01:27:53;;;;;;;21.42;14.55;;;17.20;99.90;;;;;;5081394;28;20040;-69
2022/10/18 01:30:33;;;;;;;21.33;14.38;;;17.10;99.90;;;;;;5092777;28;20028;-71
2022/10/18 01:33:08;;;;;;;25.00;14.70;;;17.20;99.90;;;;;;5092672;28;20038;-73
2022/10/18 01:35:40;;;;;;;22.73;13.90;;;17.00;99.90;;;;;;5065020;28;20031;-69
2022/10/18 01:38:10;;;;;;;;;;;16.90;99.90;;;;;;5093283;28;20027;-69
2022/10/18 01:40:38;;;;;;;23.83;15.05;;;16.80;99.90;;;;;;5092272;28;20359;-72
2022/10/18 01:43:05;;;;;;;31.05;16.33;;;16.90;99.90;;;;;;5092897;28;20510;-74
2022/10/18 01:45:31;;;;;;;23.55;15.40;;;17.10;99.90;;;;;;5092500;28;20016;-73
2022/10/18 01:47:59;;;;;;;25.90;15.45;;;17.10;99.90;;;;;;5092645;28;20035;-69
2022/10/18 01:50:33;;;;;;;24.38;15.15;;;17.10;99.90;;;;;;5092659;28;20423;-68
2022/10/18 01:52:59;;;;;;;23.65;15.30;;;17.20;99.90;;;;;;5092660;28;20036;-69
2022/10/18 01:55:43;;;;;;;19.02;15.07;;;17.20;99.90;;;;;;5092109;28;20032;-70
2022/10/18 01:58:38;;;;;;;26.00;15.00;;;17.10;99.90;;;;;;5078547;28;20032;-72
2022/10/18 02:01:31;;;;;;;27.58;14.93;;;17.10;99.90;;;;;;5051543;28;20040;-72
2022/10/18 02:04:05;;;;;;;31.25;16.73;;;17.00;99.90;;;;;;5092520;28;20032;-73
2022/10/18 02:06:37;;;;;;;27.08;14.73;;;17.10;99.90;;;;;;5096676;28;20085;-73
2022/10/18 02:09:15;;;;;;;28.20;14.77;;;17.10;99.90;;;;;;5096157;28;20032;-74
2022/10/18 02:11:43;;;;;;;26.52;13.55;;;17.10;99.90;;;;;;5096282;28;20024;-73
2022/10/18 02:14:13;;;;;;;21.95;13.35;;;17.10;99.90;;;;;;5096550;28;20481;-74
2022/10/18 02:16:48;;;;;;;21.80;13.20;;;17.10;99.90;;;;;;5096275;28;20031;-74
2022/10/18 02:19:29;;;;;;;29.75;13.63;;;17.00;99.90;;;;;;5096214;28;20036;-73
2022/10/18 02:21:57;;;;;;;19.42;13.65;;;17.10;99.90;;;;;;5096215;28;20085;-72
2022/10/18 02:24:30;;;;;;;28.40;13.73;;;17.10;99.90;;;;;;5095778;28;20035;-69
2022/10/18 02:26:56;;;;;;;20.92;13.23;;;17.10;99.90;;;;;;5081652;28;20051;-71
2022/10/18 02:29:22;;;;;;;21.17;13.82;;;17.20;99.90;;;;;;5096129;28;20016;-69
2022/10/18 02:31:51;;;;;;;21.45;12.85;;;17.20;99.90;;;;;;5096058;28;20016;-69
2022/10/18 02:34:20;;;;;;;21.88;12.57;;;17.00;99.90;;;;;;5096520;28;20036;-71
2022/10/18 02:36:53;;;;;;;17.42;12.57;;;17.20;99.90;;;;;;5077777;28;20048;-73
2022/10/18 02:39:24;;;;;;;29.10;13.10;;;17.20;99.90;;;;;;5096200;28;20416;-73
2022/10/18 02:41:49;;;;;;;24.35;12.85;;;17.10;99.90;;;;;;5095692;28;20039;-73
2022/10/18 02:44:15;;;;;;;22.90;13.10;;;17.00;99.90;;;;;;5095750;28;20403;-69
2022/10/18 02:46:41;;;;;;;23.92;13.85;;;17.10;99.90;;;;;;5095950;28;20130;-70
2022/10/18 02:49:07;;;;;;;19.17;13.38;;;17.10;99.90;;;;;;5095478;28;20527;-73
2022/10/18 02:51:33;;;;;;;24.50;13.27;;;17.10;99.90;;;;;;5095477;28;20089;-73
2022/10/18 02:53:59;;;;;;;27.40;13.85;;;17.00;99.90;;;;;;5095493;28;20044;-69
2022/10/18 02:56:24;;;;;;;24.05;12.52;;;17.10;99.90;;;;;;5096131;28;20376;-69
2022/10/18 02:58:50;;;;;;;22.75;13.55;;;17.00;99.90;;;;;;5095233;28;20490;-73
2022/10/18 03:01:16;;;;;;;26.70;13.57;;;17.10;99.90;;;;;;5095527;28;20073;-72
2022/10/18 03:03:41;;;;;;;31.55;13.13;;;17.00;99.90;;;;;;5095190;28;20042;-71
2022/10/18 03:06:07;;;;;;;25.20;13.35;;;17.00;99.90;;;;;;5094999;28;20107;-69
2022/10/18 03:08:34;;;;;;;26.27;11.63;;;17.00;99.90;;;;;;5094578;28;20032;-73
2022/10/18 03:11:00;;;;;;;26.70;12.20;;;17.00;99.90;;;;;;5095155;28;20020;-73
2022/10/18 03:13:25;;;;;;;20.95;11.30;;;17.00;99.90;;;;;;5095292;28;20100;-70
2022/10/18 03:15:51;;;;;;;30.25;11.25;;;16.80;99.90;;;;;;5095214;28;20020;-72
2022/10/18 03:18:17;;;;;;;27.17;11.35;;;16.60;99.90;;;;;;5094985;28;20421;-72
2022/10/18 03:20:43;;;;;;;25.70;11.00;;;16.50;99.90;;;;;;5076835;28;20052;-74
2022/10/18 03:23:08;;;;;;;22.30;10.35;;;16.60;99.90;;;;;;5094868;28;20028;-71
2022/10/18 03:25:34;;;;;;;32.67;11.27;;;16.50;99.90;;;;;;5086655;28;20032;-69
2022/10/18 03:28:00;;;;;;;27.15;10.77;;;16.50;99.90;;;;;;5088618;28;20511;-73
2022/10/18 03:30:26;;;;;;;27.23;12.13;;;16.70;99.90;;;;;;5095141;28;20035;-74
2022/10/18 03:32:53;;;;;;;33.53;11.75;;;16.80;99.90;;;;;;5077033;28;20024;-72
2022/10/18 03:35:18;;;;;;;24.88;10.43;;;16.70;99.90;;;;;;5094427;28;20028;-69
2022/10/18 03:37:44;;;;;;;18.20;10.25;;;16.70;99.90;;;;;;5094697;28;20023;-70
2022/10/18 03:40:10;;;;;;;18.65;10.70;;;16.70;99.90;;;;;;5094626;28;20035;-74
2022/10/18 03:42:36;;;;;;;39.17;11.95;;;16.70;99.90;;;;;;5086534;28;20029;-75
2022/10/18 03:45:02;;;;;;;25.13;10.60;;;16.80;99.90;;;;;;5088489;28;20472;-72
2022/10/18 03:47:28;;;;;;;25.73;9.90;;;16.60;99.90;;;;;;5094566;28;20016;-72
2022/10/18 03:49:54;;;;;;;23.20;10.98;;;16.70;99.90;;;;;;5094177;28;20605;-72
2022/10/18 03:52:19;;;;;;;35.08;10.07;;;16.90;99.90;;;;;;5094458;28;20027;-74
2022/10/18 03:54:45;;;;;;;24.50;10.48;;;16.50;99.90;;;;;;5076229;28;20031;-69
2022/10/18 03:57:11;;;;;;;21.45;9.38;;;16.40;99.90;;;;;;5094437;28;20032;-71
2022/10/18 03:59:36;;;;;;;24.80;9.02;;;16.10;99.90;;;;;;5094539;28;20020;-73
2022/10/18 04:02:02;;;;;;;14.63;8.10;;;16.00;99.90;;;;;;5094287;28;20469;-69
2022/10/18 04:04:28;;;;;;;23.25;9.52;;;16.10;99.90;;;;;;5094064;28;20016;-73
2022/10/18 04:06:53;;;;;;;16.27;9.77;;;16.30;99.90;;;;;;5094250;28;20125;-69
2022/10/18 04:09:19;;;;;;;24.55;9.93;;;16.00;99.90;;;;;;5075878;28;20008;-70
2022/10/18 04:11:45;;;;;;;21.15;9.95;;;15.80;99.90;;;;;;5094065;28;20040;-73
2022/10/18 04:14:11;;;;;;;27.35;10.02;;;15.90;99.90;;;;;;5093931;28;20042;-73
2022/10/18 04:16:36;;;;;;;27.55;11.30;;;16.10;99.90;;;;;;5094100;28;20119;-69
2022/10/18 04:19:02;;;;;;;28.45;11.25;;;16.20;99.90;;;;;;5092806;28;20023;-69
2022/10/18 04:21:28;;;;;;;39.58;12.27;;;16.50;99.90;;;;;;5075490;28;20484;-69
2022/10/18 04:23:54;;;;;;;35.25;11.45;;;16.70;99.90;;;;;;5094007;28;20039;-72
2022/10/18 04:26:19;;;;;;;23.25;10.48;;;16.40;99.90;;;;;;5079309;28;20039;-72
2022/10/18 04:28:45;;;;;;;29.00;9.48;;;16.30;99.90;;;;;;5093358;28;20074;-69
2022/10/18 04:31:11;;;;;;;19.38;9.02;;;16.40;99.90;;;;;;5093619;28;20036;-70
2022/10/18 04:33:37;;;;;;;19.90;8.82;;;16.30;99.90;;;;;;5093550;28;20020;-71
2022/10/18 04:36:04;;;;;;;26.73;9.25;;;16.20;99.90;;;;;;5093541;28;20028;-74
2022/10/18 04:38:29;;;;;;;26.30;9.30;;;16.30;99.90;;;;;;5075332;28;20472;-71
2022/10/18 04:40:55;;;;;;;28.60;10.02;;;16.60;99.90;;;;;;5093461;28;20024;-68
2022/10/18 04:43:21;;;;;;;34.03;9.93;;;16.80;99.90;;;;;;5093466;28;20035;-68
2022/10/18 04:45:49;;;;;;;27.38;9.40;;;16.80;99.90;;;;;;5093432;28;20016;-71
2022/10/18 04:48:16;;;;;;;25.77;9.88;;;16.70;99.90;;;;;;5093237;28;20027;-70
2022/10/18 04:50:43;;;;;;;28.55;9.10;;;16.80;99.90;;;;;;5093013;28;20483;-73
2022/10/18 04:53:13;;;;;;;20.50;7.82;;;16.90;99.90;;;;;;5093583;28;20100;-72
2022/10/18 04:55:42;;;;;;;39.58;7.63;;;16.80;99.90;;;;;;5093162;28;20022;-71
2022/10/18 04:58:07;;;;;;;24.17;7.25;;;16.90;99.90;;;;;;5075299;28;20035;-69
2022/10/18 05:00:33;;;;;;;28.08;7.78;;;16.80;99.90;;;;;;5093067;28;20032;-69
2022/10/18 05:02:59;;;;;;;29.48;7.00;;;16.90;99.90;;;;;;5092858;28;20025;-72
2022/10/18 05:05:25;;;;;;;28.52;7.53;;;16.90;99.90;;;;;;5093140;28;20032;-71
2022/10/18 05:07:51;;;;;;;20.05;6.18;;;16.70;99.90;;;;;;5063905;28;20020;-71
2022/10/18 05:10:17;;;;;;;20.23;6.95;;;16.20;99.90;;;;;;5085057;28;20383;-70
2022/10/18 05:12:42;;;;;;;32.00;7.45;;;15.80;99.90;;;;;;5092732;28;20012;-69
2022/10/18 05:15:09;;;;;;;25.95;6.90;;;15.80;99.90;;;;;;5093087;28;20066;-72
2022/10/18 05:17:34;;;;;;;28.98;7.95;;;15.90;99.90;;;;;;5075039;28;20034;-69
2022/10/18 05:20:00;;;;;;;20.45;7.75;;;16.00;99.90;;;;;;5075439;28;20032;-70
2022/10/18 05:22:26;;;;;;;28.05;8.70;;;16.00;99.90;;;;;;5092780;28;20040;-69
2022/10/18 05:24:52;;;;;;;21.45;9.85;;;15.80;99.90;;;;;;5090493;28;20016;-71
2022/10/18 05:27:18;;;;;;;23.38;8.10;;;15.80;99.90;;;;;;5080800;28;20044;-73
2022/10/18 05:29:44;;;;;;;27.13;8.77;;;16.00;99.90;;;;;;5092626;28;20068;-72
2022/10/18 05:32:09;;;;;;;31.42;8.57;;;16.00;99.90;;;;;;5092086;28;20032;-71
2022/10/18 05:34:35;;;;;;;30.17;8.13;;;16.00;99.90;;;;;;5093004;28;20057;-71
2022/10/18 05:37:01;;;;;;;27.50;8.05;;;16.30;99.90;;;;;;5092827;28;20031;-70
2022/10/18 05:39:27;;;;;;;30.27;8.90;;;15.80;99.90;;;;;;5092800;28;20036;-72
2022/10/18 05:41:52;;;;;;;27.27;8.68;;;15.90;99.90;;;;;;5074412;28;20036;-70
2022/10/18 05:44:18;;;;;;;30.65;8.82;;;15.80;99.90;;;;;;5092571;28;20520;-72
2022/10/18 05:46:44;;;;;;;34.15;8.25;;;15.90;99.90;;;;;;5092162;28;20028;-73
2022/10/18 05:49:11;;;;;;;27.48;7.88;;;16.00;99.90;;;;;;5092860;28;20028;-71
2022/10/18 05:51:37;;;;;;;27.83;8.65;;;15.60;99.90;;;;;;5092793;28;20039;-69
2022/10/18 05:54:03;;;;;;;25.45;7.75;;;15.30;99.90;;;;;;5092652;28;20025;-72
2022/10/18 05:56:29;;;;;;;36.85;9.50;;;15.40;99.90;;;;;;5092671;28;20537;-72
2022/10/18 05:58:54;;;;;;;27.63;9.70;;;15.40;99.90;;;;;;5092512;28;20028;-73
2022/10/18 06:01:20;;;;;;;24.15;8.60;;;15.50;99.90;;;;;;5092242;28;20039;-73
2022/10/18 06:03:46;;;;;;;30.48;9.95;;;15.50;99.90;;;;;;5092454;28;20024;-73
2022/10/18 06:06:13;;;;;;;31.55;10.68;;;15.70;99.90;;;;;;5092533;28;20548;-72
2022/10/18 06:08:40;;;;;;;45.83;11.82;;;16.00;99.90;;;;;;5092318;28;20051;-73
2022/10/18 06:11:12;;;;;;;43.35;11.45;;;16.10;99.90;;;;;;5092057;28;20524;-69
2022/10/18 06:13:47;;;;;;;37.67;13.45;;;16.30;99.90;;;;;;5092440;28;20047;-69
2022/10/18 06:16:14;;;;;;;37.92;12.45;;;16.00;99.90;;;;;;5066252;28;20023;-68
2022/10/18 06:18:40;;;;;;;37.05;11.57;;;15.90;99.90;;;;;;5078486;28;20048;-73
2022/10/18 06:21:06;;;;;;;31.70;12.00;;;15.90;99.90;;;;;;5071123;28;20032;-69
2022/10/18 06:23:33;;;;;;;45.63;18.25;;;15.70;99.90;;;;;;5071123;28;20028;-74
2022/10/18 06:26:04;;;;;;;47.58;12.98;;;15.50;99.90;;;;;;5071308;28;20427;-69
2022/10/18 06:28:32;;;;;;;29.50;11.82;;;15.50;99.90;;;;;;5080284;28;20041;-69
2022/10/18 06:30:58;;;;;;;40.03;14.98;;;15.40;99.90;;;;;;5063293;28;20060;-68
2022/10/18 06:33:24;;;;;;;34.38;15.73;;;15.30;99.90;;;;;;5071053;28;20087;-72
2022/10/18 06:35:55;;;;;;;42.33;15.77;;;15.30;99.90;;;;;;5076254;28;20033;-71
2022/10/18 06:38:21;;;;;;;41.00;14.23;;;15.30;99.90;;;;;;5079574;28;20029;-70
2022/10/18 06:40:47;;;;;;;50.95;15.25;;;15.40;99.90;;;;;;5086851;28;20039;-68
2022/10/18 06:43:13;;;;;;;21.60;12.55;;;15.30;99.90;;;;;;5069130;28;20036;-71
2022/10/18 06:45:38;;;;;;;40.83;14.23;;;15.20;99.90;;;;;;5072532;28;20085;-70
2022/10/18 06:48:04;;;;;;;50.85;14.68;;;15.40;99.90;;;;;;5080252;28;20060;-71
2022/10/18 06:50:30;;;;;;;45.78;15.38;;;15.40;99.90;;;;;;5086233;28;20024;-70
2022/10/18 06:52:57;;;;;;;38.45;16.10;;;15.30;99.90;;;;;;5072729;28;20118;-71
2022/10/18 06:55:22;;;;;;;46.33;16.38;;;15.50;99.90;;;;;;5093736;28;20023;-70
2022/10/18 06:57:48;;;;;;;46.90;16.35;;;15.70;99.90;;;;;;5078032;28;20401;-71
2022/10/18 07:00:14;;;;;;;39.58;16.63;;;15.50;99.90;;;;;;5081013;28;20028;-70
2022/10/18 07:02:40;;;;;;;39.08;15.15;;;15.20;99.90;;;;;;5088308;28;20451;-73
2022/10/18 07:05:07;;;;;;;30.10;13.50;;;15.10;99.90;;;;;;5091891;28;20103;-74
2022/10/18 07:07:33;;;;;;;32.20;13.27;;;15.20;99.90;;;;;;5092667;28;20024;-72
2022/10/18 07:09:58;;;;;;;28.23;13.60;;;15.20;99.90;;;;;;5079338;28;20039;-74
2022/10/18 07:12:24;;;;;;;25.50;13.25;;;15.10;99.90;;;;;;5083011;28;20029;-73
2022/10/18 07:14:50;;;;;;;29.80;12.70;;;15.20;99.90;;;;;;5067703;28;20074;-69
2022/10/18 07:17:15;;;;;;;26.42;13.10;;;15.10;99.90;;;;;;5075805;28;20039;-69
2022/10/18 07:19:41;;;;;;;29.52;14.25;;;14.90;99.90;;;;;;5055790;28;20020;-68
2022/10/18 07:22:07;;;;;;;37.65;13.88;;;15.00;99.90;;;;;;5072408;28;20123;-68
2022/10/18 07:24:32;;;;;;;43.88;15.30;;;15.10;99.90;;;;;;5070513;28;20017;-68
2022/10/18 07:26:58;;;;;;;36.88;16.10;;;15.20;99.90;;;;;;5079150;28;20127;-69
2022/10/18 07:29:24;;;;;;;35.40;16.17;;;15.20;99.90;;;;;;5070737;28;20060;-69
2022/10/18 07:31:50;;;;;;;29.52;15.30;;;15.40;99.90;;;;;;5091294;28;20042;-69
2022/10/18 07:34:15;;;;;;;35.88;13.68;;;15.50;99.90;;;;;;5086762;28;20074;-73
2022/10/18 07:36:41;;;;;;;20.55;14.63;;;15.30;99.90;;;;;;5079416;28;20393;-68
2022/10/18 07:39:07;;;;;;;24.90;14.95;;;15.20;99.90;;;;;;5087109;28;20031;-68
2022/10/18 07:41:33;;;;;;;28.50;15.35;;;15.40;99.90;;;;;;5069927;28;20549;-69
2022/10/18 07:44:00;;;;;;;26.25;15.32;;;15.50;99.90;;;;;;5070132;28;20501;-68
2022/10/18 07:46:26;;;;;;;26.67;15.35;;;15.60;99.90;;;;;;5071966;28;20043;-69
2022/10/18 07:48:51;;;;;;;24.92;14.63;;;15.40;99.90;;;;;;5076528;28;20145;-68
2022/10/18 07:51:18;;;;;;;27.70;14.48;;;15.20;99.90;;;;;;5055571;28;20916;-68
2022/10/18 07:53:45;;;;;;;35.35;16.70;;;15.70;99.90;;;;;;5073124;28;20016;-68
2022/10/18 07:56:15;;;;;;;33.33;16.40;;;16.00;99.90;;;;;;5072987;28;20027;-68
2022/10/18 07:58:45;;;;;;;33.13;16.73;;;16.20;99.90;;;;;;5073156;28;20028;-72
2022/10/18 08:01:11;;;;;;;35.78;16.60;;;16.20;99.90;;;;;;5072941;28;20034;-74
2022/10/18 08:03:39;;;;;;;33.88;16.02;;;16.10;99.90;;;;;;5072205;28;20028;-69
2022/10/18 08:06:08;;;;;;;30.52;15.43;;;16.50;99.90;;;;;;5072154;28;20028;-68
2022/10/18 08:08:35;;;;;;;34.47;14.15;;;16.50;99.90;;;;;;5072790;28;20020;-68
2022/10/18 08:11:04;;;;;;;31.08;15.15;;;16.30;99.90;;;;;;5072150;28;20074;-68
2022/10/18 08:13:30;;;;;;;36.58;13.57;;;16.30;99.90;;;;;;5071493;28;20024;-68
2022/10/18 08:16:01;;;;;;;36.85;13.80;;;16.30;99.90;;;;;;5072375;28;20027;-68
2022/10/18 08:18:27;;;;;;;46.67;12.38;;;16.60;99.90;;;;;;5073328;28;20050;-68
2022/10/18 08:20:53;;;;;;;30.40;12.35;;;16.70;99.90;;;;;;5072974;28;20489;-68
2022/10/18 08:23:19;;;;;;;37.45;11.40;;;16.80;99.90;;;;;;5039304;28;20061;-68
2022/10/18 08:25:45;;;;;;;36.83;12.85;;;16.80;99.90;;;;;;5075925;28;20024;-68
2022/10/18 08:28:12;;;;;;;41.22;13.15;;;17.10;99.90;;;;;;5093728;28;20516;-69
2022/10/18 08:30:39;;;;;;;51.40;12.60;;;17.30;99.90;;;;;;5086800;28;20122;-69
2022/10/18 08:33:04;;;;;;;58.63;11.75;;;17.70;99.90;;;;;;5072835;28;20473;-68
2022/10/18 08:35:31;;;;;;;44.55;9.95;;;17.60;99.90;;;;;;5073218;28;20069;-68
2022/10/18 08:37:57;;;;;;;36.92;9.93;;;17.90;99.90;;;;;;5073091;28;20040;-68
2022/10/18 08:40:25;;;;;;;30.25;10.82;;;17.90;99.90;;;;;;5072871;28;20028;-68
2022/10/18 08:43:02;;;;;;;30.92;10.30;;;17.70;99.90;;;;;;5073130;28;20123;-68
2022/10/18 08:45:29;;;;;;;29.30;9.30;;;18.00;99.90;;;;;;5072943;28;20583;-69
2022/10/18 08:47:56;;;;;;;40.47;10.80;;;18.20;99.90;;;;;;5072776;28;20481;-69
2022/10/18 08:50:30;;;;;;;37.08;9.68;;;18.40;99.90;;;;;;5072909;28;20017;-68
2022/10/18 08:53:19;;;;;;;29.52;7.90;;;18.20;99.90;;;;;;5072936;28;20028;-69
2022/10/18 08:55:51;;;;;;;31.45;8.07;;;18.40;99.90;;;;;;5072317;28;20044;-68
2022/10/18 08:58:21;;;;;;;34.60;7.35;;;18.80;99.90;;;;;;5072694;28;20036;-68
2022/10/18 09:00:55;;;;;;;25.33;6.35;;;18.70;99.90;;;;;;5072676;28;20025;-68
2022/10/18 09:03:54;;;;;;;36.67;5.85;;;18.80;99.90;;;;;;5072955;28;20064;-68
2022/10/18 09:06:22;;;;;;;25.77;6.05;;;19.20;99.90;;;;;;5066650;28;20060;-68
2022/10/18 09:09:24;;;;;;;29.50;6.28;;;18.50;99.90;;;;;;5060744;28;20062;-72
2022/10/18 09:11:57;;;;;;;;;;;18.60;99.90;;;;;;5037833;28;20021;-69
2022/10/18 09:14:46;;;;;;;16.30;5.00;;;18.70;99.90;;;;;;5071806;28;19965;-68
2022/10/18 09:18:02;;;;;;;21.02;5.15;;;18.40;99.90;;;;;;5070914;28;20036;-68
2022/10/18 09:20:43;;;;;;;36.53;6.85;;;18.40;99.90;;;;;;5043841;28;20146;-74
2022/10/18 09:23:19;;;;;;;28.33;5.78;;;18.70;99.90;;;;;;5060882;28;20054;-68
2022/10/18 09:25:59;;;;;;;21.13;5.00;;;18.90;99.90;;;;;;5071387;28;20542;-69
2022/10/18 09:28:36;;;;;;;30.77;5.95;;;18.90;99.90;;;;;;5087231;28;20074;-69
2022/10/18 09:31:20;;;;;;;27.25;5.30;;;18.80;99.90;;;;;;5075721;28;20122;-69
2022/10/18 09:33:54;;;;;;;29.25;6.65;;;18.40;99.90;;;;;;5083403;28;20032;-69
2022/10/18 09:36:23;;;;;;;26.17;5.90;;;18.20;99.90;;;;;;5084964;28;20020;-69
2022/10/18 09:38:52;;;;;;;25.67;6.22;;;18.50;99.90;;;;;;5077867;28;20105;-68
2022/10/18 09:41:26;;;;;;;22.70;5.40;;;19.10;99.90;;;;;;5086596;28;20691;-69
2022/10/18 09:44:00;;;;;;;26.33;5.80;;;18.80;99.90;;;;;;5089571;28;20042;-68
2022/10/18 09:46:31;;;;;;;25.42;5.40;;;18.80;99.90;;;;;;5092622;28;20021;-68
2022/10/18 09:49:04;;;;;;;20.10;4.47;;;19.50;99.90;;;;;;5090722;28;20026;-70
2022/10/18 09:51:35;;;;;;;21.27;3.90;;;19.90;99.90;;;;;;5073761;28;20400;-68
2022/10/18 09:54:29;;;;;;;24.27;4.05;;;20.00;99.90;;;;;;5092074;28;20016;-68
2022/10/18 09:57:09;;;;;;;28.83;6.30;;;19.90;99.90;;;;;;5092402;28;20072;-68
2022/10/18 09:59:40;;;;;;;29.25;5.53;;;19.90;99.90;;;;;;5068225;28;20035;-68
2022/10/18 10:02:11;;;;;;;26.70;4.75;;;20.40;99.90;;;;;;5092158;28;20483;-68
2022/10/18 10:04:37;;;;;;;16.70;4.10;;;20.20;99.90;;;;;;5092240;28;20068;-68
2022/10/18 10:07:07;;;;;;;33.08;5.25;;;20.40;99.90;;;;;;5092191;28;20051;-68
2022/10/18 10:09:44;;;;;;;27.23;4.32;;;20.90;99.90;;;;;;5064415;28;20020;-68
2022/10/18 10:12:31;;;;;;;26.83;3.55;;;21.20;99.90;;;;;;5092204;28;20032;-68
2022/10/18 10:15:25;;;;;;;17.52;3.72;;;21.20;99.90;;;;;;5092006;28;20071;-68
2022/10/18 10:18:00;;;;;;;16.90;3.85;;;21.30;99.90;;;;;;5073311;28;20032;-68
2022/10/18 10:20:46;;;;;;;23.73;3.58;;;21.80;99.90;;;;;;5096347;28;20040;-76
2022/10/18 10:23:19;;;;;;;21.85;4.03;;;21.90;99.90;;;;;;5068209;28;20028;-77
2022/10/18 10:26:00;;;;;;;21.33;3.95;;;22.30;99.90;;;;;;5086203;28;20021;-79
2022/10/18 10:28:33;;;;;;;32.40;4.55;;;22.20;99.90;;;;;;5093129;28;20502;-75
2022/10/18 10:31:28;;;;;;;22.45;4.05;;;22.50;99.90;;;;;;5077320;28;20043;-74
2022/10/18 10:34:13;;;;;;;16.33;2.95;;;23.60;99.90;;;;;;5067108;28;20491;-75
2022/10/18 10:36:53;;;;;;;16.95;3.60;;;23.20;99.90;;;;;;5095310;28;20036;-74
2022/10/18 10:39:20;;;;;;;25.02;4.22;;;23.50;99.90;;;;;;5095768;28;20024;-74
2022/10/18 10:41:48;;;;;;;17.95;3.38;;;24.10;99.90;;;;;;5095683;28;20035;-75
2022/10/18 10:44:20;;;;;;;17.35;3.80;;;24.40;99.70;;;;;;5077516;28;20044;-74
2022/10/18 10:46:48;;;;;;;22.38;3.20;;;24.10;99.90;;;;;;5095551;28;20110;-75
2022/10/18 10:49:22;;;;;;;14.93;3.22;;;24.50;99.90;;;;;;5095367;28;20076;-74
2022/10/18 10:51:57;;;;;;;17.02;3.33;;;23.80;99.90;;;;;;5095149;28;20076;-75
2022/10/18 10:54:25;;;;;;;17.77;4.00;;;24.70;99.90;;;;;;5069306;28;20039;-75
2022/10/18 10:56:59;;;;;;;15.32;3.22;;;25.50;98.00;;;;;;5081945;28;20071;-75
2022/10/18 10:59:28;;;;;;;13.50;3.65;;;26.00;96.70;;;;;;5068168;28;20020;-75
2022/10/18 11:02:13;;;;;;;13.10;2.55;;;27.00;94.70;;;;;;5095410;28;20052;-75
2022/10/18 11:04:40;;;;;;;19.65;3.40;;;27.30;95.30;;;;;;5070130;28;20027;-75
2022/10/18 11:07:23;;;;;;;14.75;3.10;;;26.40;96.00;;;;;;5095298;28;20122;-75
2022/10/18 11:10:08;;;;;;;15.13;3.10;;;25.50;98.40;;;;;;5071223;28;20107;-75
2022/10/18 11:12:48;;;;;;;17.98;3.42;;;26.80;96.90;;;;;;5077557;28;20452;-76
2022/10/18 11:15:21;;;;;;;15.88;3.38;;;27.40;96.30;;;;;;5095177;28;20043;-75
2022/10/18 11:18:17;;;;;;;12.55;3.03;;;27.30;95.80;;;;;;5095068;28;20020;-75
2022/10/18 11:20:49;;;;;;;18.02;3.40;;;25.70;96.40;;;;;;5094889;28;20055;-75
2022/10/18 11:23:17;;;;;;;15.25;3.30;;;25.80;98.50;;;;;;5050659;28;20036;-75
2022/10/18 11:26:06;;;;;;;20.63;3.75;;;26.10;97.80;;;;;;5085264;28;20066;-74
2022/10/18 11:28:50;;;;;;;13.00;3.55;;;26.90;96.30;;;;;;5092525;28;20055;-74
2022/10/18 11:31:48;;;;;;;14.70;2.92;;;24.70;97.50;;;;;;5094924;28;20036;-74
2022/10/18 11:34:25;;;;;;;19.85;3.40;;;24.60;99.30;;;;;;5073881;28;20032;-69
2022/10/18 11:37:19;;;;;;;13.02;3.35;;;25.40;98.20;;;;;;5094634;28;20089;-69
2022/10/18 11:40:07;;;;;;;12.13;2.85;;;27.30;95.80;;;;;;5094851;28;20518;-75
2022/10/18 11:42:44;;;;;;;14.55;3.85;;;28.10;94.80;;;;;;5069929;28;20024;-75
2022/10/18 11:45:23;;;;;;;19.25;3.63;;;27.80;94.50;;;;;;5094664;28;20114;-75
2022/10/18 11:47:55;;;;;;;16.83;3.70;;;28.30;94.40;;;;;;5094353;28;20034;-74
2022/10/18 11:50:52;;;;;;;15.35;3.45;;;27.60;95.70;;;;;;5076393;28;20384;-75
2022/10/18 11:53:27;;;;;;;16.08;3.25;;;27.00;95.50;;;;;;5094582;28;20039;-75
2022/10/18 11:56:13;;;;;;;19.90;3.35;;;26.80;97.20;;;;;;5094302;28;20488;-74
2022/10/18 11:59:16;;;;;;;14.77;3.78;;;28.20;94.80;;;;;;5094414;28;20044;-75
2022/10/18 12:01:57;;;;;;;14.45;3.97;;;28.70;94.40;;;;;;5094308;28;20079;-75
2022/10/18 12:04:24;;;;;;;18.05;3.90;;;25.90;96.30;;;;;;5093895;28;20020;-75
2022/10/18 12:06:54;;;;;;;17.10;3.85;;;26.10;98.00;;;;;;5094400;28;20077;-75
2022/10/18 12:09:28;;;;;;;12.48;3.10;;;27.00;95.90;;;;;;5094120;28;20028;-73
2022/10/18 12:12:22;;;;;;;17.75;3.67;;;27.30;95.20;;;;;;5094317;28;20452;-74
2022/10/18 12:15:01;;;;;;;17.33;3.97;;;27.30;95.70;;;;;;5068213;28;20047;-76
2022/10/18 12:17:33;;;;;;;14.77;3.10;;;26.80;96.10;;;;;;5075606;28;20073;-76
2022/10/18 12:20:05;;;;;;;21.25;4.85;;;25.50;96.30;;;;;;5094095;28;20097;-74
2022/10/18 12:22:41;;;;;;;18.17;4.35;;;24.70;98.50;;;;;;5093317;28;20044;-74
2022/10/18 12:25:15;;;;;;;19.52;3.92;;;25.00;97.90;;;;;;5089242;28;20473;-68
2022/10/18 12:27:53;;;;;;;14.20;3.20;;;25.20;97.70;;;;;;5083558;28;20043;-71
2022/10/18 12:30:45;;;;;;;14.52;3.40;;;26.50;96.40;;;;;;5093456;28;20103;-74
2022/10/18 12:33:16;;;;;;;22.98;3.95;;;26.90;94.70;;;;;;5093264;28;20038;-69
2022/10/18 12:35:51;;;;;;;;;;;26.70;95.70;;;;;;5076404;28;20414;-74
2022/10/18 12:38:28;;;;;;;17.42;4.07;;;27.80;94.50;;;;;;5093703;28;19942;-75
2022/10/18 12:40:54;;;;;;;20.60;4.20;;;27.10;94.70;;;;;;5092907;28;20579;-70
2022/10/18 12:43:26;;;;;;;14.45;3.90;;;25.70;96.80;;;;;;5093547;28;20477;-74
2022/10/18 12:45:54;;;;;;;17.42;3.40;;;26.30;94.90;;;;;;5093232;28;20026;-75
2022/10/18 12:48:31;;;;;;;9.82;3.45;;;27.30;95.50;;;;;;5075407;28;20067;-73
2022/10/18 12:51:19;;;;;;;13.77;3.30;;;27.60;95.10;;;;;;5075193;28;20038;-76
2022/10/18 12:54:09;;;;;;;19.40;4.22;;;28.60;93.20;;;;;;5093026;28;20036;-76